Terminal Aerodrome Forecast
Issued by NWS

Home | Current Version | Previous Version | Text Only | Print | Product List | Glossary On
Versions: 1 2 3 4 5 6 7 8 9 10 11 12 13 14 15 16 17
675
FTUS42 TJSJ 021741
TAFJSJ
TAF
TJSJ 021741Z 0218/0318 08011KT P6SM -RA FEW020 SCT030 BKN080
     FM030200 VRB05KT P6SM FEW030 SCT040
     FM031200 09011KT P6SM VCSH FEW020 SCT030 SCT090=

USA.gov is the U.S. government's official web portal to all federal, state and local government web resources and services.